Timeline UpdatesTrip UpdatesNews PostsPvt PostsTravel TipsAdmin PostsConv PostsFollowed PostsChat RequestsBlog PostsPNR Posts

Disclaimer
Search
 
 
Fri Apr 25, 2014 04:12:15 ISTHomeTrainsΣChainsAtlasPNRForumGalleryNewsFAQTripsMembersLoginFeedback
No Recent News for this Train
Other Trains in the News **new
Latest...
Additional coach: सद्भावना एक्सप्रेस (14007 /14008) व (14015 /14016) में 2 से 28 मार्च तक थर्ड एसी का अतिरिक्त कोच...
Sat Feb 15, 2014 (07:04AM)
⇐ Return Journey: Train# 14016

14015/Sadbhavna Express

Oct 14 2013 (8:21PM)
Change Departure Station:
Change Arrival Station:
Post a Train Travel TipPost a Train Travel Tip **new
Post a Comment/Question/Picture/VideoPost a Comment/Question/Picture/Video
Pantry/Catering
✕ NO Pantry Car
✓ Catering Avbl
Loco/Rake Reversals
SGL/Sagauli (3); MFP/Muzaffarpur Junction (6);
RSA - Rake Sharing
14007/14008
Rake/Coach Composition
TKD WDM#3A:SLR:GEN:GEN:GEN:GEN:GEN:S1:S2:S3:S4:S5:S6:S7:S8:S9:BI:GEN:GEN:GEN:SLR;;Entry# 229760 Author: ✖★яυℓєѕ я 4°• ƒσσℓѕ°° °°•ⓥⓘⓡDiesel Philic°°•ⓥⓘⓡ
Loco
TKD WDM-3A
News    PNR    Forum    Time-Table    Availability    Fare Chart    Map    Arr/Dep History    Trips    Gallery    ΣChains    X/O    Timeline    
Travel Time: 1h 32m    1 halts    Distance: 46 km    Avg Speed: 30 km/hr
Type: Mail/Express
Zone: NR/Northern
Departs @ 03:18 (Avg 49m late)
Platform# ???
  T T  
Pilkhua/PKW 
Arrives @ 04:50 (Avg 40m late)
Platform# 5
  T T  
Old Delhi Junction/DLI 

1 halts. 8 intermediate Stations between Pilkhua and Old Delhi Junction

Hide intermediate Stations  Show Old Time-Table

#CodeStation NameX/OArrivesAvgDepartsAvgHaltPFDay#KmSpeedElevZoneAddress
1RXLRaxaul Junction (5)  -00:35+8--1-1194.75088mECREast Champaran, Bihar
1.1MSDHMasnadih  00:45-00:45-  1-1186.0 5079mECRUnchi Dih, Bihar
1.2RGHRamgarhwa (1)  00:52-00:52-  1-1180.5 5075mECRRamgarhwa, Bihar
1.3DRQDharminiya Halt  00:58-00:58-  1-1175.2 5074mECRBela, Bihar
2SGLSagauli (3)O01:10+2501:35+2525m--1-1165.56973mECRSugauli, Bihar
2.1SRASemra  01:43-01:43-  1-1156.3 6972mECRSemra Tola Bhola, Bihar
2.2CHAHChailaha Halt  01:50-01:50-  1-1148.0 6973mECRChailaha, Bihar
3BMKIBapudham Motihari (2)  01:53+2901:58+295m--1-1144.97472mECRMotihari, Bihar
3.1MKIMotihari (2)  01:58-01:58-  1-1144.8 7473mECRMotihari, Bihar
3.2MCOMotihari Court (1)  02:00-02:00-  1-1142.0 7474mECRMotihari Court, Bihar
3.3JDRJiwdhara (1)  02:05-02:05-  1-1136.2 7470mECRJiwdhara, Bihar
3.4BGARBangari  02:10-02:10-  1-1130.6 7470mECRBangari, Bihar
3.5KPCMKuwarchintawanpur Halt  02:12-02:12-  1-1127.8 7465mECRRamgarh, Bihar
3.6PPAPipra (2)O  02:16-02:16-  1-1122.9 7469mECRNational Highway 28, Bihar
3.7KXRKuria  02:19-02:19-  1-1119.0 7468mECRKuria, Bihar
4CAAChakia (1)  02:24+3402:26+342m11-1112.84366mECRChakia, Bihar
4.1HRNGHarpur Nag Halt  02:32-02:32-  1-1108.1 4367mECRNational Highway 28, Bihar
5MAIMehsi (1)  02:38+3302:40+332m11-1104.26264mECRMehsi, Bihar
5.1MHLMahwal  02:43-02:43-  1-1101.0 6263mECRMuzaffarpur, Bihar
6MTRMotipur (1)  02:53+3402:55+332m11-1090.83162mECRRatanpura, Bihar
6.1NRVNariyar  03:05-03:05-  1-1085.6 3159mECRNariyaar, Bihar
6.2PPRHPiprahan Halt  03:13-03:13-  1-1081.6 3160mECRPiprahan, Bihar
6.3KTIKantiX  03:21-03:21-  1-1077.4 3159mECRKanti, Bihar
6.4KVCKaparpura  03:27-03:27-  1-1074.2 3159mECRNational Highway 28, Bihar
7MFPMuzaffarpur Junction (6)X03:45+3204:15+3530m--1-1064.74457mECRMuzaffarpur, Bihar
7.1RDRam Dayalu Nagar (3)  04:23-04:23-  1-1058.7 4456mECRMuzaffarpur, Bihar
7.2TURTurki (2)X  04:34-04:34-  1-1051.0 4455mECRTurki, Bihar
7.3KHIKurhani (2)X  04:43-04:43-  1-1044.6 4456mECRKurhani, Bihar
7.4GRLGoraul (2)  04:51-04:51-  1-1038.8 4457mECRNational Highway 77, Bihar
7.5BNPTBenipatti Pirapur (1)  04:53-04:53-  1-1036.9 4455mECRGhojaul Rd, Bihar
7.6BNRBhagwanpur (3)X  05:02-05:02-  1-1030.5 4460mECRBhagwanpur, Bihar
7.7BTHLBithauli (1)  05:08-05:08-  1-1025.9 4458mECRVaishali, Bihar
7.8SAISarai (1)X  05:14-05:14-  1-1021.5 4454mECRVaishali, Bihar
7.9GWHGhoshawar (1)X  05:23-05:23-  1-1015.4 4454mECRDaulatpur Deoria urf Daulatpur, Bihar
8HJPHajipur Junction (3)  05:29+3705:34+375m--1-1010.93355mECR06224-272230, Bihar
9SEESonpur Junction (4)  05:44+3705:47+363m--1-1005.47356mECRSaran, Bihar
9.1PMUParmanandpur (2)  05:52-05:52-  1-998.7 7356mECRNational Highway 19, Bihar
9.2NYONayagaon (2)  05:56-05:56-  1-994.1 7353mECRNayagaon Sarai, Bihar
9.3STLRSitalpur (2)  06:03-06:03-  1-986.4 7357mECRSitalpur, Bihar
10DGADighwara (2)  06:06+4406:08+462m--1-982.25860mECR06158-281240, Bihar
10.1AABHAmbika Bhawani Halt  06:12-06:12-  1-978.3 5859mECRNH 19, Bihar
10.2ATNRAwatarnagar (2)  06:14-06:14-  1-976.4 5856mECRNH 19, Bihar
10.3PPDAPanchpatia Deoria Halt (1)  06:16-06:16-  1-974.2 5857mECRNH 19, Bihar
10.4BAGLBaragopal  06:19-06:19-  1-971.4 5857mECRSH 46, Bihar
10.5DRIDumri Juara (2)X  06:23-06:23-  1-967.3 5857mECRSaran, Bihar
10.6GJHGoldinganj (2)X  06:28-06:28-  1-962.6 5858mECRChapra Patna Highway, Bihar
10.7CIChhapra Kacheri (3)  06:38-06:38-  1-953.5 5857mNERChhapra, Bihar
11CPRChhapra Junction (6)  06:40+1:0707:00+1:0520m--1-951.37058mNERDistt: Saran, Bihar
11.1GTSTGautamsthan  07:08-07:08-  1-942.5 7061mNERRevelganjghat, Bihar
11.2RVGRevelganj Ghat Halt (1)  07:09-07:09-  1-941.2 7061mNERChhapra, Bihar
11.3MHTManjhi  07:14-07:14-  1-934.6 7061mNERManjhi, Bihar
11.4BKLABakulhaX  07:19-07:19-  1-929.2 7056mNERBakulha, Uttar Pradesh
12SIPSuraimanpur  07:25+1:2207:27+1:232m--1-922.15860mNERBallia, Uttar Pradesh
12.1DCPDal Chapra  07:33-07:33-  1-916.4 5861mNERDal Chapra, Bihar
12.2ROIReotiX  07:39-07:39-  1-911.1 5864mNERBallia district, Uttar Pradesh
12.3STWSahatwar  07:47-07:47-  1-903.1 5863mNERBallia district, Uttar Pradesh
12.4CATAChhata Aschaura  07:52-07:52-  1-897.9 5861mNERGirija Bhavan, Bihar
12.5BCDBansdih Road  07:56-07:56-  1-894.4 5862mNERBansdih Road/, Uttar Pradesh
13BUIBallia (3)  08:05+1:2408:10+1:255m31-885.78262mNERBallia, Uttar Pradesh
13.1SVISagarpali  08:14-08:14-  1-880.2 8264mNERNational Highway 19, Uttar Pradesh
13.2PEPPhephna JunctionX  08:18-08:18-  1-875.3 8266mNERBallia, Uttar Pradesh
13.3CBNChit Baragaon  08:22-08:22-  1-869.0 8270mNERChitbaragaon, Uttar Pradesh
13.4TJDTajpur Dehma  08:28-08:28-  1-861.6 8269mNERGosalpur Rd, Uttar Pradesh
13.5KMDRKarimuddin Pur  08:33-08:33-  1-854.0 8270mNERKarimdinpur, Uttar Pradesh
13.6DDDDhondha Dih  08:38-08:38-  1-847.5 8272mNERMDR 94E, Uttar Pradesh
14YFPYusufpurX  08:43+1:3408:45+1:362m--1-840.64877mNERMDR 94E, Uttar Pradesh
14.1SBKShahbaz Kuli  08:55-08:55-  1-833.1 4873mNERShahbaz Quli, Uttar Pradesh
14.2GZTGhazipur Ghat  09:05-09:05-  1-824.8 4874mNERGhazipur, Uttar Pradesh
15GCTGhazipur City (3)  09:10+1:3509:15+1:355m21-820.74374mNERGhazipur, Uttar Pradesh
15.1AKSAnkuspur (1)  09:23-09:23-  1-814.9 4373mNERNational Highway 29, Uttar Pradesh
15.2SAHRSaheri (1)  09:31-09:31-  1-809.1 4374mNERNational Highway 29, Uttar Pradesh
15.3NDJNandGanj (1)X  09:40-09:40-  1-803.0 4377mNERNational Highway 29, Uttar Pradesh
15.4BSCKBasuchak (1)  09:47-09:47-  1-797.7 4376mNERBasuchak-Rampur Mangha Rd, Uttar Pradesh
15.5TRNTaraonX  09:52-09:52-  1-794.0 4382mNERTaraon Railway Station, Uttar Pradesh
15.6SYHSaiyedpur Bhitri  10:03-10:03-  1-786.0 4384mNERSaidpur, Uttar Pradesh
16ARJAunrihar Junction (4)X  10:10+1:2510:12+1:272m--1-781.23080mNERGhazipur, Uttar Pradesh
16.1RJIRajawari  10:29-10:29-  1-772.9 3083mNERNational Highway 29, Uttar Pradesh
16.2KDQKadipur  10:43-10:43-  1-765.9 3084mNERNational Highway 29, Uttar Pradesh
16.3SRNTSarnath (2)  11:03-11:03-  1-755.9 3082mNERVaranasi, Uttar Pradesh
17BCYVaranasi City (3)  11:16+1:1211:18+1:182m--1-749.31177mNERVaranasi, Uttar Pradesh
18BSBVaranasi Junction (9)  11:35+1:2811:45+1:3510m31-746.06582mNRVaranasi, Uttar Pradesh
18.1BSBYVaranesi YardX  11:46-11:46-  1-745.0 6581mNRVaranasi, Uttar Pradesh
18.2SOPShivpur (3)  11:50-11:50-  1-740.4 6581mNRVaranasi, Uttar Pradesh
18.3BRPTBirapatti (2)X  11:56-11:56-  1-734.1 6584mNRRd Varanasi Uttar Pradesh, Uttar Pradesh
18.4BTPBabatpur (2)  12:02-12:02-  1-727.5 6584mNRSatomahua-Mangari Rd, Uttar Pradesh
18.5PDRDPindra Road (2)  12:07-12:07-  1-722.0 6581mNRSatomahua-Mangari Rd, Uttar Pradesh
18.6KSFKhalispur (2)  12:11-12:11-  1-718.2 6583mNRPhulpur, Uttar Pradesh
18.7TLMDTrilochan Mahdo (2)X  12:15-12:15-  1-713.0 6583mNRNational Highway 56, Uttar Pradesh
18.8JLLJalalGanj (2)  12:21-12:21-  1-706.8 6587mNRJalalganj Railway Station, Uttar Pradesh
18.9SIQSarkoni (2)X  12:27-12:27-  1-700.9 6585mNRBandipur, Uttar Pradesh
18.10ZBDZafarabad Junction (4)  12:32-12:32-  1-694.8 6583mNRNational Highway 56, Uttar Pradesh
18.11JNUKJaunpur Kutchary  12:36-12:36-  1-691.2 6585mNRJaunpur, Uttar Pradesh
19JOPJaunpur City (3)  12:38+1:5412:40+1:542m31-688.55287mNRJaunpur, Uttar Pradesh
19.1BKSABakhsha (1)  12:53-12:53-  1-677.6 5287mNRBaksha, Uttar Pradesh
19.2SVZSarai Harkhu (1)  13:02-13:02-  1-669.5 5289mNRNational Highway 56, Uttar Pradesh
19.3SKNSri Krishna Nagar (2)  13:12-13:12-  1-660.6 5292mNRBadlapur, Uttar Pradesh
19.4HRPGHarpalGanj (1)X  13:22-13:22-  1-652.6 5290mNRNational Highway 56, Uttar Pradesh
19.5NIMGNima Gopalpur Halt (2)  13:30-13:30-  1-645.6 5293mNRShailkha, Uttar Pradesh
19.6KEPRKoiripur (1)  13:34-13:34-  1-641.9 5296mNRNational Highway 56, Uttar Pradesh
19.7CHDAChanda Halt  13:41-13:41-  1-636.3 52100mNRChanda, Uttar Pradesh
19.8MWPMahrani Pachhim (1)  13:45-13:45-  1-632.7 5290mNRNational Highway 56, Uttar Pradesh
20LBALambhua (1)  13:54+1:5013:55+1:541m11-624.71697mNRLambhua, Uttar Pradesh
20.1BDINBhadaiyan (1)O  14:20-14:20-  1-617.8 1697mNRBhadaiya, Uttar Pradesh
20.2PKXPakhruli (2)X  14:42-14:42-  1-611.8 16101mNRSahupur, Uttar Pradesh
21SLNSultanpur Junction (3)  15:15+1:1215:30+1:0615m31-602.77699mNRSultanpur., Uttar Pradesh
21.1BDKNBandhua Kalan (2)  15:37-15:37-  1-594.1 76106mNRNational Highway 56, Uttar Pradesh
21.2SHNGShivnagar (2)  15:47-15:47-  1-580.7 76105mNRNational Highway 56, Uttar Pradesh
22MFKAMusafir Khana (3)  15:55+1:2815:56+1:301m11-571.267105mNRMusfirKhana, Uttar Pradesh
22.1AHZAdhinpur (2)  16:04-16:04-  1-562.7 67109mNRNational Highway 56, Uttar Pradesh
22.2WGJWaris Ganj (1)  16:07-16:07-  1-559.2 67114mNRWaris Ganj, Uttar Pradesh
23NHHNihalgarh (3)  16:13+1:3816:14+1:391m--1-552.337108mNRJagdishpur, Uttar Pradesh
23.1SYWSindurwa (3)X  16:26-16:26-  1-545.1 37108mNRSindurwa Railway Station, Uttar Pradesh
23.2AKJAkbarGanj (1)  16:39-16:39-  1-537.0 37112mNRSH 31, Uttar Pradesh
23.3CHBSChaubisi (1)  16:53-16:53-  1-528.6 37119mNRNational Highway 56, Uttar Pradesh
23.4HGHHaidergarh (2)  17:07-17:07-  1-520.1 37116mNRState Highway 13, Uttar Pradesh
23.5TEGTirbediganj (2)  17:19-17:19-  1-512.4 37116mNRMangalpur, Uttar Pradesh
23.6CDRLChhandrauli (2)X  17:33-17:33-  1-504.2 37120mNRChhandrauli, Uttar Pradesh
23.7RMNRRahmatnagar (2)X  17:48-17:48-  1-495.3 37117mNRAmethi, Uttar Pradesh
23.8APGAnupganj (2)  17:57-17:57-  1-489.7 37118mNRBaliyakhera, Uttar Pradesh
23.9BKKSBakkas (2)X  18:10-18:10-  1-481.5 37121mNRBakas, Uttar Pradesh
23.10UTRUtraitia Junction (2)  18:20-18:20-  1-475.5 37124mNRLucknow, Uttar Pradesh
23.11BHAWBlock Hut A  18:27-18:27-  1-471.0 37121mNRLucknow, Uttar Pradesh
23.12LBHDilkusha Cabin  18:33-18:33-  1-467.5 37116mNRLucknow, Uttar Pradesh
24LKOLucknow Charbagh (9)X  18:40+1:0518:50+1:0610m71-463.415123mNRCharbagh, Uttar Pradesh
24.1LNWTLucknow West  18:57-18:57-  1-461.7 15123mNRLucknow, Uttar Pradesh
25AMGAlamnagar (3)  19:18+5919:20+1:002m--1-456.385126mNRLucknow, Uttar Pradesh
25.1KKJKakori (3)  19:25-19:25-  1-448.8 85129mNRSH 25, Uttar Pradesh
25.2MLDMalihabad  19:32-19:32-  1-439.1 85130mNRMalihabad, Uttar Pradesh
25.3DILDilawarnagarX  19:36-19:36-  1-433.5 85133mNRSH 25, Uttar Pradesh
25.4RBDRahimabad  19:42-19:42-  1-425.9 85132mNRSH 25, Uttar Pradesh
25.5SANSandila (3)X  19:49-19:49-  1-414.9 85132mNRSandila, Uttar Pradesh
25.6UTAUmar TaliX  19:53-19:53-  1-409.6 85135mNRHardoi, Uttar Pradesh
25.7DLQDalelnagar  19:58-19:58-  1-403.2 85136mNRSH 25, Uttar Pradesh
25.8BLMBalamu Junction (4)X  20:04-20:04-  1-394.5 85139mNRBalamau, Uttar Pradesh
25.9BGHBaghauliX  20:10-20:10-  1-385.8 85141mNRsharda nehar, Uttar Pradesh
25.10MSTMasit  20:15-20:15-  1-378.9 85141mNRSH 25, Uttar Pradesh
25.11KARKarna  20:20-20:20-  1-371.4 85143mNRHardoi, Uttar Pradesh
26HRIHardoi (5)  20:27+1:0920:32+1:085m11-361.554146mNRHardoi, Uttar Pradesh
26.1KUFKaurhaX  20:41-20:41-  1-353.1 54148mNRSH 25, Uttar Pradesh
26.2BEGBehtagokul  20:51-20:51-  1-344.2 54152mNRBehtagokul, Uttar Pradesh
26.3TDPTodarpur  20:58-20:58-  1-337.8 54147mNRSH 25, Uttar Pradesh
26.4SHRMSharma  21:01-21:01-  1-335.2 54150mNRSH 25, Uttar Pradesh
26.5AJIAnjhi Shahabad  21:08-21:08-  1-329.3 54148mNRAnjhi Shahabad, Uttar Pradesh
26.6AIGAlgawanX  21:15-21:15-  1-323.0 54152mNRAlgawan, Uttar Pradesh
26.7KHKahiliya  21:24-21:24-  1-314.5 54152mNRSH 25, Uttar Pradesh
26.8PRPMPt Ram Prasad Bismil  21:29-21:29-  1-310.1 54154mNRState Highway 25, Uttar Pradesh
26.9ROZARoza Junction (4)  21:34-21:34-  1-305.9 54156mNRShahjahanpur, Uttar Pradesh
26.10SXKShahjahanpur Court  21:41-21:41-  1-299.5 54160mNRShahjahanpur, Uttar Pradesh
27SPNShahjahanpur Junction (3)X  21:42+5821:47+595m--1-298.564156mNRShahjahanpur, Uttar Pradesh
27.1BTRABanthra  21:55-21:55-  1-290.1 64154mNRNH 24, Uttar Pradesh
27.2BHDHBahadurpur Halt  22:00-22:00-  1-284.5 64154mNRNH 24, Uttar Pradesh
27.3TLHTilhar  22:04-22:04-  1-280.3 64163mNRTilhar, Uttar Pradesh
27.4MILAMilakpur HaltX  22:07-22:07-  1-276.7 64158mNRDhanela, Uttar Pradesh
27.5MKMiranpur Katra  22:13-22:13-  1-270.6 64162mNRShahjahanpur, Uttar Pradesh
27.6KSRKKasrak Halt  22:13-22:13-  1-270.4 64162mNRKatra, Uttar Pradesh
27.7BLPUBilpurO  22:20-22:20-  1-263.4 64161mNRFatehganj, Uttar Pradesh
27.8TSATisuaX  22:26-22:26-  1-256.4 64165mNRNational Highway 24, Uttar Pradesh
27.9PMRPitambarpur  22:34-22:34-  1-247.9 64171mNRPitambarpur, Uttar Pradesh
27.10RYSRasuriyaX  22:43-22:43-  1-238.4 64174mNRNH 24, Uttar Pradesh
27.11CHTIChaneti  22:49-22:49-  1-231.8 64168mNRBareilly, Uttar Pradesh
27.12BEBareilly Junction (4)  22:53-22:53-  1-228.0 64174mNRBareilly, Uttar Pradesh
27.13RGBRamganga  22:59-22:59-  1-221.5 64170mNRState Highway 33, Uttar Pradesh
27.14RSCRamganga South Cabin  22:59-22:59-  1-220.9 64162mNERFaridapur Thakuran, Uttar Pradesh
27.15BTGBasharatGanj  23:07-23:07-  1-212.4 64167mNRBareilly, Uttar Pradesh
27.16NSUNisui  23:12-23:12-  1-207.7 64167mNRAonla- Bareilly Link Rd, Uttar Pradesh
28AOAonla  23:18+1:0623:20+1:062m--1-201.156176mNRDist. Bareilly, Uttar Pradesh
28.1RBKReoti B Khera (1)  23:26-23:26-  1-195.4 56177mNRReoti B Khera, Uttar Pradesh
28.2KEGKarengi  23:34-23:34-  1-188.4 56183mNRKarengi, Uttar Pradesh
28.3DUBDabtara (2)  23:39-23:39-  1-183.1 56183mNRBisauli, Uttar Pradesh
28.4PRKEPurua Khera  23:45-23:45-  1-177.7 56182mNRDist. Badaun, Uttar Pradesh
28.5AFRAsafpur  23:50-23:50-  1-172.6 56186mNRDist. Badaun, Uttar Pradesh
28.6SSKASisarka  23:57-23:57-  1-166.3 56188mNRState Highway 43, Uttar Pradesh
29CHChandausi Junction (3)  00:05+5800:10+585m--2-158.940193mNRChandausi, Uttar Pradesh
29.1GTFGumthal  00:23-00:23-  2-150.3 40192mNRRaja Ka Sahaspur, Uttar Pradesh
29.2KZSKuakhera Halt  00:27-00:27-  2-147.4 40194mNRChandausi, Uttar Pradesh
29.3JRJJargaon  00:31-00:31-  2-144.7 40190mNRChandausi, Uttar Pradesh
29.4RJKRaja Ka Sahaspur  00:40-00:40-  2-139.0 40196mNRBilari, Uttar Pradesh
29.5KDKundarkhi  00:48-00:48-  2-133.2 40198mNRKundarki, Uttar Pradesh
29.6FRDFarhedi  00:55-00:55-  2-128.9 40201mNRMoradabad- Chandausi Rd, Uttar Pradesh
29.7MCVMacharya  00:58-00:58-  2-126.4 40195mNRKundarkhi, Uttar Pradesh
30MBMoradabad Junction (7)X  01:15+5501:25+5810m52-115.159201mNRMoradabad, Uttar Pradesh
30.1LPBLodipur Bishanpur  01:37-01:37-  2-102.9 59202mNRBishanpur, Uttar Pradesh
30.2LDPLodipur Bishnupur (2)X  01:38-01:38-  2-102.8 59200mNRHarthala Station Rd, Uttar Pradesh
30.3HKPHakimpur (2)  01:42-01:42-  2-98.5 59204mNRSH 78, Uttar Pradesh
30.4CKLTChak Kali Lait (2)  01:46-01:46-  2-94.9 59211mNRSH 78, Uttar Pradesh
30.5KIVKaialsa (2)X  01:49-01:49-  2-91.0 59211mNRSH 78, Uttar Pradesh
31AMROAmroha (3)  01:56+5501:58+552m22-84.668217mNRAmroha, Uttar Pradesh
31.1KFPRKafurpur  02:08-02:08-  2-73.1 68215mNRRajabpur, Uttar Pradesh
31.2MHHRMahesra (2)  02:11-02:11-  2-70.0 68214mNRNH 24, Uttar Pradesh
31.3GJLGajraula Junction (3)  02:18-02:18-  2-61.8 68211mNRGujraula, Uttar Pradesh
31.4KHEKankatherX  02:25-02:25-  2-54.1 68204mNRNational Highway 24, Uttar Pradesh
31.5GGBGarhmuktesar Bridge (1)  02:31-02:31-  2-47.8 68202mNRNH-24, Uttar Pradesh
31.6GMSGarhmuktesar (3)  02:37-02:37-  2-41.0 68218mNRGarhmukteshwar, Uttar Pradesh
31.7SMBLSimbhooli (2)  02:45-02:45-  2-31.6 68217mNRSimbhauli, Uttar Pradesh
31.8SKHRSikhera Mb Halt  02:48-02:48-  2-28.0 68215mNRRajpur, Uttar Pradesh
31.9QXRKuchesar Road  02:51-02:51-  2-24.5 68216mNRHapur Rd, Uttar Pradesh
31.10BBOBabugarh  02:56-02:56-  2-18.8 68211mNRGhaziabad, Uttar Pradesh
32HPUHapur Junction (4)  03:03+4603:05+462m--2-11.261214mNRHapur Jn., Uttar Pradesh
32.1KKMBKastla Kasmabad Halt (2)X  03:12-03:12-  2-4.4 61214mNRHapur Rd, Uttar Pradesh
33PKW»Pilkhua (3)»  03:16+4903:18+492m--20.037218mNRPilkhuwa, Uttar Pradesh
33.1DSDasna (1)  03:38-03:38-  212.3 37216mNRHapur Rd, Uttar Pradesh
33.2AKNRAdhyatmik Nagar (2)  03:42-03:42-  214.9 37213mNRAdhyatmik, Uttar Pradesh
33.3MFHMahrauli (3)  03:48-03:48-  218.4 37218mNRGhaziabad, Uttar Pradesh
34GZBGhaziabad Junction (6)  04:00+4304:02+432m3225.625217mNRGhaziabad, Uttar Pradesh
34.1SBBSahibabad Junction (5)  04:18-04:18-  232.3 25209mNRGhaziabad, Uttar Pradesh
34.2DSAPDelhi Shahdara A Panel  04:28-04:28-  236.6 25208mNRVivek Vihar Phase I, Delhi NCT
34.3VVBVivek Vihar (2)  04:29-04:29-  236.8 25209mNRJhilmil Industrial Area, Delhi NCT
34.4DSAShahdara Junction (4)  04:35-04:35-  239.2 25212mNRCircular Rd, Delhi NCT
35DLI•Old Delhi Junction (16)•  04:50+40-5245.6-219mNRNear Chandni Chowk Metro Station, Delhi NCT
Scroll to Top
Scroll to Bottom